sensor_id;sensor_type;location;lat;lon;timestamp;temperature;humidity
80958;DHT22;70419;42.700;23.316;2023-07-29T00:00:42;20.90;44.30
80958;DHT22;70419;42.700;23.316;2023-07-29T00:03:09;20.90;44.50
80958;DHT22;70419;42.700;23.316;2023-07-29T00:05:36;20.80;44.50
80958;DHT22;70419;42.700;23.316;2023-07-29T00:08:02;20.80;44.40
80958;DHT22;70419;42.700;23.316;2023-07-29T00:10:28;20.80;44.50
80958;DHT22;70419;42.700;23.316;2023-07-29T00:12:54;20.70;44.40
80958;DHT22;70419;42.700;23.316;2023-07-29T00:15:20;20.70;44.50
80958;DHT22;70419;42.700;23.316;2023-07-29T00:17:45;20.70;44.80
80958;DHT22;70419;42.700;23.316;2023-07-29T00:20:11;20.60;44.60
80958;DHT22;70419;42.700;23.316;2023-07-29T00:22:37;20.60;44.70
80958;DHT22;70419;42.700;23.316;2023-07-29T00:25:03;20.50;44.60
80958;DHT22;70419;42.700;23.316;2023-07-29T00:27:29;20.50;44.80
80958;DHT22;70419;42.700;23.316;2023-07-29T00:29:55;20.50;44.90
80958;DHT22;70419;42.700;23.316;2023-07-29T00:32:20;20.40;45.00
80958;DHT22;70419;42.700;23.316;2023-07-29T00:34:46;20.40;45.40
80958;DHT22;70419;42.700;23.316;2023-07-29T00:37:12;20.30;45.60
80958;DHT22;70419;42.700;23.316;2023-07-29T00:39:37;20.30;46.20
80958;DHT22;70419;42.700;23.316;2023-07-29T00:42:04;20.30;46.50
80958;DHT22;70419;42.700;23.316;2023-07-29T00:44:30;20.20;46.60
80958;DHT22;70419;42.700;23.316;2023-07-29T00:46:57;20.20;46.90
80958;DHT22;70419;42.700;23.316;2023-07-29T00:49:24;20.10;47.00
80958;DHT22;70419;42.700;23.316;2023-07-29T00:51:50;20.10;47.30
80958;DHT22;70419;42.700;23.316;2023-07-29T00:54:16;20.10;47.40
80958;DHT22;70419;42.700;23.316;2023-07-29T00:56:41;20.10;47.60
80958;DHT22;70419;42.700;23.316;2023-07-29T00:59:08;20.10;47.60
80958;DHT22;70419;42.700;23.316;2023-07-29T01:01:37;20.00;47.60
80958;DHT22;70419;42.700;23.316;2023-07-29T01:04:03;20.00;47.70
80958;DHT22;70419;42.700;23.316;2023-07-29T01:09:30;19.90;47.90
80958;DHT22;70419;42.700;23.316;2023-07-29T01:14:39;19.90;48.10
80958;DHT22;70419;42.700;23.316;2023-07-29T01:17:09;19.80;48.10
80958;DHT22;70419;42.700;23.316;2023-07-29T01:19:48;19.80;48.10
80958;DHT22;70419;42.700;23.316;2023-07-29T01:22:23;19.80;48.20
80958;DHT22;70419;42.700;23.316;2023-07-29T01:24:50;19.80;48.20
80958;DHT22;70419;42.700;23.316;2023-07-29T01:27:16;19.80;48.10
80958;DHT22;70419;42.700;23.316;2023-07-29T01:29:42;19.80;48.40
80958;DHT22;70419;42.700;23.316;2023-07-29T01:32:15;19.80;49.30
80958;DHT22;70419;42.700;23.316;2023-07-29T01:37:26;19.70;48.30
80958;DHT22;70419;42.700;23.316;2023-07-29T01:39:54;19.60;48.50
80958;DHT22;70419;42.700;23.316;2023-07-29T01:42:24;19.50;48.60
80958;DHT22;70419;42.700;23.316;2023-07-29T01:44:50;19.50;48.70
80958;DHT22;70419;42.700;23.316;2023-07-29T01:47:16;19.60;48.90
80958;DHT22;70419;42.700;23.316;2023-07-29T01:49:42;19.50;48.80
80958;DHT22;70419;42.700;23.316;2023-07-29T01:52:08;19.60;48.90
80958;DHT22;70419;42.700;23.316;2023-07-29T01:54:34;19.50;48.90
80958;DHT22;70419;42.700;23.316;2023-07-29T01:57:02;19.60;48.80
80958;DHT22;70419;42.700;23.316;2023-07-29T01:59:30;19.60;48.90
80958;DHT22;70419;42.700;23.316;2023-07-29T02:01:57;19.50;49.00
80958;DHT22;70419;42.700;23.316;2023-07-29T02:04:23;19.50;49.20
80958;DHT22;70419;42.700;23.316;2023-07-29T02:06:49;19.40;49.30
80958;DHT22;70419;42.700;23.316;2023-07-29T02:09:15;19.50;49.60
80958;DHT22;70419;42.700;23.316;2023-07-29T02:11:41;19.40;49.60
80958;DHT22;70419;42.700;23.316;2023-07-29T02:14:08;19.40;49.70
80958;DHT22;70419;42.700;23.316;2023-07-29T02:16:34;19.40;49.90
80958;DHT22;70419;42.700;23.316;2023-07-29T02:19:00;19.40;50.00
80958;DHT22;70419;42.700;23.316;2023-07-29T02:21:26;19.30;50.20
80958;DHT22;70419;42.700;23.316;2023-07-29T02:23:51;19.30;50.90
80958;DHT22;70419;42.700;23.316;2023-07-29T02:26:19;19.30;51.20
80958;DHT22;70419;42.700;23.316;2023-07-29T02:28:44;19.20;51.20
80958;DHT22;70419;42.700;23.316;2023-07-29T02:31:15;19.20;51.20
80958;DHT22;70419;42.700;23.316;2023-07-29T02:33:43;19.20;51.40
80958;DHT22;70419;42.700;23.316;2023-07-29T02:36:09;19.10;51.30
80958;DHT22;70419;42.700;23.316;2023-07-29T02:38:35;19.10;51.50
80958;DHT22;70419;42.700;23.316;2023-07-29T02:41:00;19.10;51.70
80958;DHT22;70419;42.700;23.316;2023-07-29T02:43:26;19.00;51.80
80958;DHT22;70419;42.700;23.316;2023-07-29T02:45:52;19.00;52.00
80958;DHT22;70419;42.700;23.316;2023-07-29T02:48:17;19.00;52.20
80958;DHT22;70419;42.700;23.316;2023-07-29T02:50:43;19.00;52.20
80958;DHT22;70419;42.700;23.316;2023-07-29T02:53:10;18.90;52.00
80958;DHT22;70419;42.700;23.316;2023-07-29T02:55:35;18.90;52.40
80958;DHT22;70419;42.700;23.316;2023-07-29T02:58:01;18.80;52.40
80958;DHT22;70419;42.700;23.316;2023-07-29T03:00:26;18.80;52.40
80958;DHT22;70419;42.700;23.316;2023-07-29T03:02:53;18.80;52.50
80958;DHT22;70419;42.700;23.316;2023-07-29T03:05:18;18.70;52.50
80958;DHT22;70419;42.700;23.316;2023-07-29T03:07:44;18.80;52.50
80958;DHT22;70419;42.700;23.316;2023-07-29T03:10:11;18.80;52.40
80958;DHT22;70419;42.700;23.316;2023-07-29T03:12:37;18.70;52.50
80958;DHT22;70419;42.700;23.316;2023-07-29T03:15:03;18.60;52.40
80958;DHT22;70419;42.700;23.316;2023-07-29T03:17:29;18.60;52.30
80958;DHT22;70419;42.700;23.316;2023-07-29T03:19:55;18.60;52.30
80958;DHT22;70419;42.700;23.316;2023-07-29T03:22:23;18.60;52.20
80958;DHT22;70419;42.700;23.316;2023-07-29T03:24:49;18.60;52.20
80958;DHT22;70419;42.700;23.316;2023-07-29T03:27:15;18.60;52.20
80958;DHT22;70419;42.700;23.316;2023-07-29T03:29:41;18.60;52.20
80958;DHT22;70419;42.700;23.316;2023-07-29T03:32:07;18.60;52.00
80958;DHT22;70419;42.700;23.316;2023-07-29T03:34:34;18.60;51.80
80958;DHT22;70419;42.700;23.316;2023-07-29T03:37:01;18.70;51.90
80958;DHT22;70419;42.700;23.316;2023-07-29T03:39:27;18.70;51.70
80958;DHT22;70419;42.700;23.316;2023-07-29T03:41:52;18.70;51.70
80958;DHT22;70419;42.700;23.316;2023-07-29T03:44:19;18.90;51.20
80958;DHT22;70419;42.700;23.316;2023-07-29T03:46:45;18.80;51.30
80958;DHT22;70419;42.700;23.316;2023-07-29T03:49:11;18.80;51.30
80958;DHT22;70419;42.700;23.316;2023-07-29T03:51:36;18.80;51.40
80958;DHT22;70419;42.700;23.316;2023-07-29T03:54:02;18.80;51.30
80958;DHT22;70419;42.700;23.316;2023-07-29T03:56:28;18.80;51.30
80958;DHT22;70419;42.700;23.316;2023-07-29T03:58:56;18.80;51.30
80958;DHT22;70419;42.700;23.316;2023-07-29T04:01:27;18.80;51.40
80958;DHT22;70419;42.700;23.316;2023-07-29T04:03:53;18.80;51.60
80958;DHT22;70419;42.700;23.316;2023-07-29T04:06:20;18.80;51.70
80958;DHT22;70419;42.700;23.316;2023-07-29T04:08:46;18.80;51.60
80958;DHT22;70419;42.700;23.316;2023-07-29T04:11:12;18.90;51.60
80958;DHT22;70419;42.700;23.316;2023-07-29T04:13:39;18.90;51.40
80958;DHT22;70419;42.700;23.316;2023-07-29T04:16:05;18.90;51.30
80958;DHT22;70419;42.700;23.316;2023-07-29T04:18:31;19.00;51.20
80958;DHT22;70419;42.700;23.316;2023-07-29T04:20:59;19.00;51.20
80958;DHT22;70419;42.700;23.316;2023-07-29T04:23:25;19.10;51.20
80958;DHT22;70419;42.700;23.316;2023-07-29T04:25:51;19.10;51.00
80958;DHT22;70419;42.700;23.316;2023-07-29T04:28:17;19.20;50.90
80958;DHT22;70419;42.700;23.316;2023-07-29T04:30:43;19.20;50.60
80958;DHT22;70419;42.700;23.316;2023-07-29T04:33:08;19.30;50.60
80958;DHT22;70419;42.700;23.316;2023-07-29T04:35:34;19.40;50.40
80958;DHT22;70419;42.700;23.316;2023-07-29T04:38:00;19.40;50.20
80958;DHT22;70419;42.700;23.316;2023-07-29T04:40:25;19.50;49.90
80958;DHT22;70419;42.700;23.316;2023-07-29T04:42:51;19.60;49.60
80958;DHT22;70419;42.700;23.316;2023-07-29T04:45:17;19.70;49.50
80958;DHT22;70419;42.700;23.316;2023-07-29T04:47:43;19.80;49.30
80958;DHT22;70419;42.700;23.316;2023-07-29T04:50:09;19.80;49.10
80958;DHT22;70419;42.700;23.316;2023-07-29T04:52:35;19.90;48.90
80958;DHT22;70419;42.700;23.316;2023-07-29T04:55:00;19.90;48.70
80958;DHT22;70419;42.700;23.316;2023-07-29T04:57:26;20.10;48.70
80958;DHT22;70419;42.700;23.316;2023-07-29T04:59:52;20.10;48.30
80958;DHT22;70419;42.700;23.316;2023-07-29T05:02:17;20.20;48.10
80958;DHT22;70419;42.700;23.316;2023-07-29T05:04:43;20.30;47.80
80958;DHT22;70419;42.700;23.316;2023-07-29T05:07:09;20.50;47.60
80958;DHT22;70419;42.700;23.316;2023-07-29T05:09:34;20.60;47.30
80958;DHT22;70419;42.700;23.316;2023-07-29T05:12:00;20.70;47.00
80958;DHT22;70419;42.700;23.316;2023-07-29T05:14:26;20.80;46.70
80958;DHT22;70419;42.700;23.316;2023-07-29T05:16:52;20.90;46.50
80958;DHT22;70419;42.700;23.316;2023-07-29T05:19:17;21.00;46.30
80958;DHT22;70419;42.700;23.316;2023-07-29T05:21:43;21.10;46.00
80958;DHT22;70419;42.700;23.316;2023-07-29T05:24:09;21.20;45.60
80958;DHT22;70419;42.700;23.316;2023-07-29T05:26:35;21.30;45.60
80958;DHT22;70419;42.700;23.316;2023-07-29T05:29:02;21.20;45.60
80958;DHT22;70419;42.700;23.316;2023-07-29T05:31:29;21.20;45.50
80958;DHT22;70419;42.700;23.316;2023-07-29T05:33:55;21.40;45.40
80958;DHT22;70419;42.700;23.316;2023-07-29T05:36:20;21.60;45.10
80958;DHT22;70419;42.700;23.316;2023-07-29T05:38:46;21.70;44.60
80958;DHT22;70419;42.700;23.316;2023-07-29T05:41:12;21.80;44.10
80958;DHT22;70419;42.700;23.316;2023-07-29T05:43:37;22.00;43.90
80958;DHT22;70419;42.700;23.316;2023-07-29T05:46:03;22.10;43.50
80958;DHT22;70419;42.700;23.316;2023-07-29T05:48:29;22.30;43.20
80958;DHT22;70419;42.700;23.316;2023-07-29T05:50:55;22.30;43.00
80958;DHT22;70419;42.700;23.316;2023-07-29T05:53:20;22.40;42.70
80958;DHT22;70419;42.700;23.316;2023-07-29T05:55:46;22.50;42.40
80958;DHT22;70419;42.700;23.316;2023-07-29T05:58:12;22.70;42.10
80958;DHT22;70419;42.700;23.316;2023-07-29T06:00:37;22.80;42.00
80958;DHT22;70419;42.700;23.316;2023-07-29T06:03:03;22.90;41.80
80958;DHT22;70419;42.700;23.316;2023-07-29T06:05:29;23.00;41.30
80958;DHT22;70419;42.700;23.316;2023-07-29T06:07:54;23.10;41.00
80958;DHT22;70419;42.700;23.316;2023-07-29T06:10:20;23.10;40.70
80958;DHT22;70419;42.700;23.316;2023-07-29T06:12:47;23.10;40.80
80958;DHT22;70419;42.700;23.316;2023-07-29T06:15:13;23.20;40.60
80958;DHT22;70419;42.700;23.316;2023-07-29T06:17:39;23.40;40.30
80958;DHT22;70419;42.700;23.316;2023-07-29T06:20:06;23.50;39.80
80958;DHT22;70419;42.700;23.316;2023-07-29T06:22:32;23.70;39.70
80958;DHT22;70419;42.700;23.316;2023-07-29T06:24:58;23.70;39.60
80958;DHT22;70419;42.700;23.316;2023-07-29T06:27:24;23.90;39.20
80958;DHT22;70419;42.700;23.316;2023-07-29T06:29:50;24.00;38.50
80958;DHT22;70419;42.700;23.316;2023-07-29T06:32:16;24.00;39.10
80958;DHT22;70419;42.700;23.316;2023-07-29T06:34:42;24.10;38.90
80958;DHT22;70419;42.700;23.316;2023-07-29T06:37:07;24.30;38.50
80958;DHT22;70419;42.700;23.316;2023-07-29T06:39:35;24.40;38.20
80958;DHT22;70419;42.700;23.316;2023-07-29T06:42:00;24.50;37.90
80958;DHT22;70419;42.700;23.316;2023-07-29T06:44:27;24.50;37.90
80958;DHT22;70419;42.700;23.316;2023-07-29T06:46:53;24.60;37.80
80958;DHT22;70419;42.700;23.316;2023-07-29T06:49:18;24.70;37.40
80958;DHT22;70419;42.700;23.316;2023-07-29T06:51:45;24.90;37.10
80958;DHT22;70419;42.700;23.316;2023-07-29T06:54:11;25.00;37.00
80958;DHT22;70419;42.700;23.316;2023-07-29T06:56:36;25.20;37.00
80958;DHT22;70419;42.700;23.316;2023-07-29T06:59:02;25.30;36.50
80958;DHT22;70419;42.700;23.316;2023-07-29T07:01:28;25.40;36.40
80958;DHT22;70419;42.700;23.316;2023-07-29T07:03:54;25.50;36.40
80958;DHT22;70419;42.700;23.316;2023-07-29T07:06:21;25.60;36.40
80958;DHT22;70419;42.700;23.316;2023-07-29T07:08:48;25.70;36.10
80958;DHT22;70419;42.700;23.316;2023-07-29T07:11:13;25.90;35.50
80958;DHT22;70419;42.700;23.316;2023-07-29T07:13:39;25.90;35.80
80958;DHT22;70419;42.700;23.316;2023-07-29T07:16:05;26.10;36.00
80958;DHT22;70419;42.700;23.316;2023-07-29T07:18:31;26.10;36.00
80958;DHT22;70419;42.700;23.316;2023-07-29T07:20:56;26.20;35.30
80958;DHT22;70419;42.700;23.316;2023-07-29T07:23:22;26.30;35.00
80958;DHT22;70419;42.700;23.316;2023-07-29T07:25:48;26.20;35.30
80958;DHT22;70419;42.700;23.316;2023-07-29T07:28:13;26.30;35.40
80958;DHT22;70419;42.700;23.316;2023-07-29T07:30:40;26.30;35.00
80958;DHT22;70419;42.700;23.316;2023-07-29T07:33:10;26.40;35.00
80958;DHT22;70419;42.700;23.316;2023-07-29T07:35:35;26.50;34.90
80958;DHT22;70419;42.700;23.316;2023-07-29T07:38:01;26.70;34.40
80958;DHT22;70419;42.700;23.316;2023-07-29T07:40:33;26.80;34.10
80958;DHT22;70419;42.700;23.316;2023-07-29T07:42:59;26.90;33.10
80958;DHT22;70419;42.700;23.316;2023-07-29T07:45:24;27.00;33.30
80958;DHT22;70419;42.700;23.316;2023-07-29T07:47:52;27.00;33.20
80958;DHT22;70419;42.700;23.316;2023-07-29T07:50:19;27.00;33.10
80958;DHT22;70419;42.700;23.316;2023-07-29T07:52:44;27.20;32.30
80958;DHT22;70419;42.700;23.316;2023-07-29T07:55:10;27.30;32.90
80958;DHT22;70419;42.700;23.316;2023-07-29T07:57:36;27.50;32.80
80958;DHT22;70419;42.700;23.316;2023-07-29T08:00:02;27.70;32.10
80958;DHT22;70419;42.700;23.316;2023-07-29T08:02:29;28.00;31.40
80958;DHT22;70419;42.700;23.316;2023-07-29T08:04:55;28.70;30.90
80958;DHT22;70419;42.700;23.316;2023-07-29T08:07:21;30.10;29.30
80958;DHT22;70419;42.700;23.316;2023-07-29T08:09:47;32.00;26.90
80958;DHT22;70419;42.700;23.316;2023-07-29T08:12:13;34.20;24.60
80958;DHT22;70419;42.700;23.316;2023-07-29T08:14:38;36.10;23.10
80958;DHT22;70419;42.700;23.316;2023-07-29T08:17:04;37.80;21.50
80958;DHT22;70419;42.700;23.316;2023-07-29T08:19:30;39.40;19.60
80958;DHT22;70419;42.700;23.316;2023-07-29T08:21:55;40.80;18.60
80958;DHT22;70419;42.700;23.316;2023-07-29T08:24:21;42.20;17.50
80958;DHT22;70419;42.700;23.316;2023-07-29T08:26:47;43.70;16.40
80958;DHT22;70419;42.700;23.316;2023-07-29T08:29:13;44.80;15.60
80958;DHT22;70419;42.700;23.316;2023-07-29T08:31:39;45.90;15.10
80958;DHT22;70419;42.700;23.316;2023-07-29T08:34:04;46.80;13.70
80958;DHT22;70419;42.700;23.316;2023-07-29T08:36:30;46.30;14.30
80958;DHT22;70419;42.700;23.316;2023-07-29T08:38:56;46.70;14.10
80958;DHT22;70419;42.700;23.316;2023-07-29T08:41:26;47.70;13.60
80958;DHT22;70419;42.700;23.316;2023-07-29T08:44:15;48.60;13.00
80958;DHT22;70419;42.700;23.316;2023-07-29T08:46:44;49.30;12.60
80958;DHT22;70419;42.700;23.316;2023-07-29T08:49:12;49.80;12.10
80958;DHT22;70419;42.700;23.316;2023-07-29T08:51:41;50.50;11.70
80958;DHT22;70419;42.700;23.316;2023-07-29T08:54:09;50.80;11.40
80958;DHT22;70419;42.700;23.316;2023-07-29T08:56:36;51.20;11.10
80958;DHT22;70419;42.700;23.316;2023-07-29T08:59:02;51.40;11.00
80958;DHT22;70419;42.700;23.316;2023-07-29T09:01:30;51.90;10.60
80958;DHT22;70419;42.700;23.316;2023-07-29T09:03:56;52.50;10.20
80958;DHT22;70419;42.700;23.316;2023-07-29T09:06:23;53.10;10.10
80958;DHT22;70419;42.700;23.316;2023-07-29T09:08:51;53.40;9.50
80958;DHT22;70419;42.700;23.316;2023-07-29T09:11:19;53.90;9.20
80958;DHT22;70419;42.700;23.316;2023-07-29T09:13:45;54.20;8.90
80958;DHT22;70419;42.700;23.316;2023-07-29T09:16:12;54.40;8.70
80958;DHT22;70419;42.700;23.316;2023-07-29T09:18:37;54.70;8.80
80958;DHT22;70419;42.700;23.316;2023-07-29T09:21:03;54.00;8.80
80958;DHT22;70419;42.700;23.316;2023-07-29T09:23:39;54.00;8.80
80958;DHT22;70419;42.700;23.316;2023-07-29T09:26:06;54.50;8.60
80958;DHT22;70419;42.700;23.316;2023-07-29T09:28:37;54.80;8.40
80958;DHT22;70419;42.700;23.316;2023-07-29T09:31:03;54.60;8.20
80958;DHT22;70419;42.700;23.316;2023-07-29T09:33:30;54.70;8.30
80958;DHT22;70419;42.700;23.316;2023-07-29T09:35:57;55.10;8.20
80958;DHT22;70419;42.700;23.316;2023-07-29T09:38:27;55.90;7.80
80958;DHT22;70419;42.700;23.316;2023-07-29T09:40:55;56.30;7.60
80958;DHT22;70419;42.700;23.316;2023-07-29T09:43:26;56.50;7.40
80958;DHT22;70419;42.700;23.316;2023-07-29T09:45:54;56.90;7.40
80958;DHT22;70419;42.700;23.316;2023-07-29T09:48:22;57.30;7.20
80958;DHT22;70419;42.700;23.316;2023-07-29T09:50:48;57.70;7.10
80958;DHT22;70419;42.700;23.316;2023-07-29T09:53:14;58.10;6.90
80958;DHT22;70419;42.700;23.316;2023-07-29T09:55:46;58.60;6.70
80958;DHT22;70419;42.700;23.316;2023-07-29T09:58:13;59.10;6.50
80958;DHT22;70419;42.700;23.316;2023-07-29T10:00:39;59.40;6.20
80958;DHT22;70419;42.700;23.316;2023-07-29T10:03:06;59.60;6.20
80958;DHT22;70419;42.700;23.316;2023-07-29T10:05:34;59.90;6.00
80958;DHT22;70419;42.700;23.316;2023-07-29T10:08:01;60.20;5.90
80958;DHT22;70419;42.700;23.316;2023-07-29T10:10:28;60.70;5.60
80958;DHT22;70419;42.700;23.316;2023-07-29T10:12:54;60.70;5.60
80958;DHT22;70419;42.700;23.316;2023-07-29T10:15:22;60.30;5.80
80958;DHT22;70419;42.700;23.316;2023-07-29T10:17:50;60.30;5.70
80958;DHT22;70419;42.700;23.316;2023-07-29T10:20:16;60.40;5.60
80958;DHT22;70419;42.700;23.316;2023-07-29T10:22:43;60.30;5.70
80958;DHT22;70419;42.700;23.316;2023-07-29T10:25:18;59.30;5.80
80958;DHT22;70419;42.700;23.316;2023-07-29T10:28:06;58.60;6.30
80958;DHT22;70419;42.700;23.316;2023-07-29T10:30:32;59.40;6.10
80958;DHT22;70419;42.700;23.316;2023-07-29T10:33:02;60.20;5.80
80958;DHT22;70419;42.700;23.316;2023-07-29T10:35:28;60.80;5.50
80958;DHT22;70419;42.700;23.316;2023-07-29T10:37:55;61.40;5.40
80958;DHT22;70419;42.700;23.316;2023-07-29T10:40:21;61.80;5.10
80958;DHT22;70419;42.700;23.316;2023-07-29T10:43:12;62.10;5.00
80958;DHT22;70419;42.700;23.316;2023-07-29T10:45:41;62.20;5.00
80958;DHT22;70419;42.700;23.316;2023-07-29T10:48:10;62.00;5.00
80958;DHT22;70419;42.700;23.316;2023-07-29T10:50:37;62.30;4.90
80958;DHT22;70419;42.700;23.316;2023-07-29T10:53:03;62.40;4.80
80958;DHT22;70419;42.700;23.316;2023-07-29T10:55:35;62.40;4.80
80958;DHT22;70419;42.700;23.316;2023-07-29T10:58:22;62.70;4.70
80958;DHT22;70419;42.700;23.316;2023-07-29T11:00:49;63.00;4.70
80958;DHT22;70419;42.700;23.316;2023-07-29T11:03:15;63.00;4.30
80958;DHT22;70419;42.700;23.316;2023-07-29T11:05:44;62.90;4.40
80958;DHT22;70419;42.700;23.316;2023-07-29T11:08:30;63.00;4.60
80958;DHT22;70419;42.700;23.316;2023-07-29T11:11:05;63.40;4.40
80958;DHT22;70419;42.700;23.316;2023-07-29T11:13:33;62.50;4.40
80958;DHT22;70419;42.700;23.316;2023-07-29T11:16:00;61.80;4.60
80958;DHT22;70419;42.700;23.316;2023-07-29T11:18:28;61.60;4.70
80958;DHT22;70419;42.700;23.316;2023-07-29T11:20:55;60.90;4.90
80958;DHT22;70419;42.700;23.316;2023-07-29T11:23:31;60.90;4.90
80958;DHT22;70419;42.700;23.316;2023-07-29T11:25:57;60.70;4.40
80958;DHT22;70419;42.700;23.316;2023-07-29T11:28:26;60.20;4.90
80958;DHT22;70419;42.700;23.316;2023-07-29T11:30:52;60.30;5.00
80958;DHT22;70419;42.700;23.316;2023-07-29T11:33:24;61.00;4.80
80958;DHT22;70419;42.700;23.316;2023-07-29T11:35:51;61.40;4.70
80958;DHT22;70419;42.700;23.316;2023-07-29T11:38:19;62.00;5.60
80958;DHT22;70419;42.700;23.316;2023-07-29T11:41:18;61.60;4.70
80958;DHT22;70419;42.700;23.316;2023-07-29T11:43:44;59.00;5.60
80958;DHT22;70419;42.700;23.316;2023-07-29T11:46:10;58.30;5.70
80958;DHT22;70419;42.700;23.316;2023-07-29T11:48:37;59.30;5.60
80958;DHT22;70419;42.700;23.316;2023-07-29T11:51:02;60.30;5.40
80958;DHT22;70419;42.700;23.316;2023-07-29T11:53:29;61.10;4.90
80958;DHT22;70419;42.700;23.316;2023-07-29T11:55:58;61.80;4.80
80958;DHT22;70419;42.700;23.316;2023-07-29T11:58:24;61.40;4.70
80958;DHT22;70419;42.700;23.316;2023-07-29T12:00:51;61.30;4.80
80958;DHT22;70419;42.700;23.316;2023-07-29T12:03:17;61.70;4.90
80958;DHT22;70419;42.700;23.316;2023-07-29T12:05:43;62.20;4.70
80958;DHT22;70419;42.700;23.316;2023-07-29T12:08:09;62.50;4.30
80958;DHT22;70419;42.700;23.316;2023-07-29T12:10:35;62.30;4.70
80958;DHT22;70419;42.700;23.316;2023-07-29T12:13:01;62.60;4.50
80958;DHT22;70419;42.700;23.316;2023-07-29T12:15:28;62.30;4.40
80958;DHT22;70419;42.700;23.316;2023-07-29T12:17:58;62.10;4.50
80958;DHT22;70419;42.700;23.316;2023-07-29T12:20:25;62.00;4.40
80958;DHT22;70419;42.700;23.316;2023-07-29T12:22:59;61.30;4.40
80958;DHT22;70419;42.700;23.316;2023-07-29T12:25:30;60.50;4.50
80958;DHT22;70419;42.700;23.316;2023-07-29T12:28:01;60.00;4.60
80958;DHT22;70419;42.700;23.316;2023-07-29T12:30:27;59.00;5.80
80958;DHT22;70419;42.700;23.316;2023-07-29T12:32:53;56.90;5.60
80958;DHT22;70419;42.700;23.316;2023-07-29T12:35:19;56.80;5.60
80958;DHT22;70419;42.700;23.316;2023-07-29T12:37:44;56.40;5.70
80958;DHT22;70419;42.700;23.316;2023-07-29T12:40:24;56.40;5.70
80958;DHT22;70419;42.700;23.316;2023-07-29T12:42:51;57.50;5.60
80958;DHT22;70419;42.700;23.316;2023-07-29T12:45:17;58.20;5.30
80958;DHT22;70419;42.700;23.316;2023-07-29T12:47:45;58.90;5.20
80958;DHT22;70419;42.700;23.316;2023-07-29T12:50:10;58.30;5.10
80958;DHT22;70419;42.700;23.316;2023-07-29T12:52:36;57.40;5.60
80958;DHT22;70419;42.700;23.316;2023-07-29T12:55:02;57.60;5.50
80958;DHT22;70419;42.700;23.316;2023-07-29T12:57:28;58.20;5.40
80958;DHT22;70419;42.700;23.316;2023-07-29T12:59:54;57.90;5.50
80958;DHT22;70419;42.700;23.316;2023-07-29T13:02:19;54.90;6.50
80958;DHT22;70419;42.700;23.316;2023-07-29T13:04:46;53.70;6.90
80958;DHT22;70419;42.700;23.316;2023-07-29T13:07:12;54.40;6.80
80958;DHT22;70419;42.700;23.316;2023-07-29T13:09:37;54.70;6.50
80958;DHT22;70419;42.700;23.316;2023-07-29T13:12:03;55.70;6.40
80958;DHT22;70419;42.700;23.316;2023-07-29T13:14:29;56.70;5.80
80958;DHT22;70419;42.700;23.316;2023-07-29T13:16:55;57.40;5.80
80958;DHT22;70419;42.700;23.316;2023-07-29T13:19:21;57.60;5.50
80958;DHT22;70419;42.700;23.316;2023-07-29T13:21:46;57.70;6.10
80958;DHT22;70419;42.700;23.316;2023-07-29T13:24:12;57.90;5.40
80958;DHT22;70419;42.700;23.316;2023-07-29T13:26:38;57.60;5.50
80958;DHT22;70419;42.700;23.316;2023-07-29T13:29:03;57.80;5.30
80958;DHT22;70419;42.700;23.316;2023-07-29T13:31:29;58.30;4.80
80958;DHT22;70419;42.700;23.316;2023-07-29T13:33:56;58.70;5.10
80958;DHT22;70419;42.700;23.316;2023-07-29T13:36:22;59.10;5.00
80958;DHT22;70419;42.700;23.316;2023-07-29T13:38:47;59.30;4.80
80958;DHT22;70419;42.700;23.316;2023-07-29T13:41:13;59.20;4.40
80958;DHT22;70419;42.700;23.316;2023-07-29T13:43:39;59.20;5.80
80958;DHT22;70419;42.700;23.316;2023-07-29T13:46:04;58.40;5.20
80958;DHT22;70419;42.700;23.316;2023-07-29T13:48:30;58.30;5.30
80958;DHT22;70419;42.700;23.316;2023-07-29T13:50:56;58.30;5.00
80958;DHT22;70419;42.700;23.316;2023-07-29T13:53:21;58.40;5.20
80958;DHT22;70419;42.700;23.316;2023-07-29T13:55:47;58.40;5.10
80958;DHT22;70419;42.700;23.316;2023-07-29T13:58:13;58.40;5.20
80958;DHT22;70419;42.700;23.316;2023-07-29T14:00:38;58.40;4.80
80958;DHT22;70419;42.700;23.316;2023-07-29T14:03:04;58.20;5.20
80958;DHT22;70419;42.700;23.316;2023-07-29T14:05:30;57.60;5.30
80958;DHT22;70419;42.700;23.316;2023-07-29T14:07:56;57.50;5.60
80958;DHT22;70419;42.700;23.316;2023-07-29T14:10:21;57.20;5.50
80958;DHT22;70419;42.700;23.316;2023-07-29T14:12:47;57.20;5.30
80958;DHT22;70419;42.700;23.316;2023-07-29T14:15:13;57.00;6.10
80958;DHT22;70419;42.700;23.316;2023-07-29T14:17:38;56.70;6.20
80958;DHT22;70419;42.700;23.316;2023-07-29T14:20:07;56.10;6.70
80958;DHT22;70419;42.700;23.316;2023-07-29T14:22:33;55.50;6.70
80958;DHT22;70419;42.700;23.316;2023-07-29T14:24:59;55.40;7.20
80958;DHT22;70419;42.700;23.316;2023-07-29T14:27:24;55.10;7.20
80958;DHT22;70419;42.700;23.316;2023-07-29T14:29:50;54.70;7.10
80958;DHT22;70419;42.700;23.316;2023-07-29T14:32:16;54.30;7.60
80958;DHT22;70419;42.700;23.316;2023-07-29T14:34:42;54.10;7.70
80958;DHT22;70419;42.700;23.316;2023-07-29T14:37:07;53.70;8.20
80958;DHT22;70419;42.700;23.316;2023-07-29T14:39:33;53.30;8.40
80958;DHT22;70419;42.700;23.316;2023-07-29T14:41:59;52.80;8.70
80958;DHT22;70419;42.700;23.316;2023-07-29T14:44:24;52.40;8.80
80958;DHT22;70419;42.700;23.316;2023-07-29T14:46:50;52.10;9.00
80958;DHT22;70419;42.700;23.316;2023-07-29T14:49:16;51.50;9.10
80958;DHT22;70419;42.700;23.316;2023-07-29T14:51:42;50.20;9.70
80958;DHT22;70419;42.700;23.316;2023-07-29T14:54:07;48.70;10.50
80958;DHT22;70419;42.700;23.316;2023-07-29T14:56:33;48.30;10.80
80958;DHT22;70419;42.700;23.316;2023-07-29T14:58:59;47.90;11.00
80958;DHT22;70419;42.700;23.316;2023-07-29T15:01:24;47.60;11.10
80958;DHT22;70419;42.700;23.316;2023-07-29T15:03:53;47.40;11.30
80958;DHT22;70419;42.700;23.316;2023-07-29T15:06:19;47.20;11.40
80958;DHT22;70419;42.700;23.316;2023-07-29T15:08:45;47.00;11.40
80958;DHT22;70419;42.700;23.316;2023-07-29T15:11:10;46.80;11.40
80958;DHT22;70419;42.700;23.316;2023-07-29T15:13:36;45.60;12.30
80958;DHT22;70419;42.700;23.316;2023-07-29T15:16:02;43.80;13.60
80958;DHT22;70419;42.700;23.316;2023-07-29T15:18:28;42.10;14.50
80958;DHT22;70419;42.700;23.316;2023-07-29T15:20:56;40.80;15.30
80958;DHT22;70419;42.700;23.316;2023-07-29T15:23:22;39.90;15.80
80958;DHT22;70419;42.700;23.316;2023-07-29T15:25:48;38.90;16.70
80958;DHT22;70419;42.700;23.316;2023-07-29T15:28:14;38.30;17.30